Aviation Digital Data Service (ADDS)

Output produced by METARs form (1806 UTC 19 October 2017)
found at http://www.aviationweather.gov/adds/metars/
 
LBBG 191800Z 05008KT CAVOK 14/13 Q1017 NOSIG
TAF LBBG 191700Z 1918/2018 08010KT CAVOK 
     BECMG 1919/1921 3000 BR 
     TEMPO 2002/2006 0600 BCFG BKN004 
     BECMG 2006/2007 CAVOK 
     BECMG 2010/2012 12010KT
       
LBGO 191800Z AUTO 00000KT 9999 NCD 11/11 Q1016
TAF LBGO 191700Z 1918/2018 VRB04KT CAVOK 
     BECMG 1919/1921 5000 BR 
     TEMPO 2000/2005 0600 BCFG 
     BECMG 2006/2007 CAVOK
       
LBPD 191800Z AUTO 00000KT 9999 NCD 16/06 Q1017 NOSIG
TAF LBPD 191700Z 1918/2018 VRB04KT CAVOK 
     TEMPO 2002/2006 4000 BR
       
LBSF 191800Z 09003KT CAVOK 13/07 Q1018 NOSIG
TAF LBSF 191700Z 1918/2018 VRB04KT CAVOK 
     BECMG 1923/2001 5000 BR 
     BECMG 2001/2003 2000 BR 
     TEMPO 2003/2006 0400 BCFG SCT002 
     BECMG 2007/2009 CAVOK
       
LBWN 191800Z 06005KT 9999 FEW007 14/13 Q1017 NOSIG
TAF LBWN 191700Z 1918/2018 VRB04KT CAVOK 
     BECMG 1919/1921 5000 BR 
     TEMPO 2000/2006 1500 BR BKN010 
     PROB40 2003/2005 0600 BCFG BKN004 
     BECMG 2006/2007 CAVOK 
     BECMG 2010/2012 13010KT
       
LBBG 191800Z 05008KT CAVOK 14/13 Q1017 NOSIG
TAF LBBG 191700Z 1918/2018 08010KT CAVOK 
     BECMG 1919/1921 3000 BR 
     TEMPO 2002/2006 0600 BCFG BKN004 
     BECMG 2006/2007 CAVOK 
     BECMG 2010/2012 12010KT
       
LBGO 191800Z AUTO 00000KT 9999 NCD 11/11 Q1016
TAF LBGO 191700Z 1918/2018 VRB04KT CAVOK 
     BECMG 1919/1921 5000 BR 
     TEMPO 2000/2005 0600 BCFG 
     BECMG 2006/2007 CAVOK
       
LBPD 191800Z AUTO 00000KT 9999 NCD 16/06 Q1017 NOSIG
TAF LBPD 191700Z 1918/2018 VRB04KT CAVOK 
     TEMPO 2002/2006 4000 BR
       
LBSF 191800Z 09003KT CAVOK 13/07 Q1018 NOSIG
TAF LBSF 191700Z 1918/2018 VRB04KT CAVOK 
     BECMG 1923/2001 5000 BR 
     BECMG 2001/2003 2000 BR 
     TEMPO 2003/2006 0400 BCFG SCT002 
     BECMG 2007/2009 CAVOK
       
LBWN 191800Z 06005KT 9999 FEW007 14/13 Q1017 NOSIG
TAF LBWN 191700Z 1918/2018 VRB04KT CAVOK 
     BECMG 1919/1921 5000 BR 
     TEMPO 2000/2006 1500 BR BKN010 
     PROB40 2003/2005 0600 BCFG BKN004 
     BECMG 2006/2007 CAVOK 
     BECMG 2010/2012 13010KT